Relevés horaires Florennes (Belgique)


Relevés horaires à Florennes - Dimanche 30 Août 2026
Heure UTC1 Température [°C] Vent [km/h] Hum. [%] Pres.4 [hPa] Visi. [Km] Nébu. [octa] Préc.5 [mm] Cond.
2m. Res. Ros. Dir.2 Vit. Moy. Raf.3
23:00 17.2 17.2 12.6 S 5.6 -- 9.3 74 1011.2(-0.2/3h) >70 -- -- NA
22:00 16.7 16.7 12.5 S 5.6 -- 7.4 76 1011.2(-0.7/3h) >70 -- -- --
21:00 17.3 17.3 13.1 S 5.6 -- 9.3 76 1011.3(-0.5/3h) >70 -- -- --
20:00 18.2 18.2 13.8 S 3.7 -- 5.6 75 1011.3(-0.7/3h) >70 -- -- --
19:00 18.6 18.6 14.4 S 3.7 -- 5.6 77 1011.7(-0.6/3h) >70 -- -- --
18:00 19.2 19.2 14.4 SSO 3.7 -- 18.5 74 1011.7(-1.0/3h) >70 -- -- --
17:00 19.6 19.6 14.2 SSO 3.7 -- 13.0 71 1011.8(-0.9/3h) >70 -- -- --
16:00 19.5 19.5 13.7 S 7.4 -- 18.5 69 1012.3(-1.2/3h) >70 -- -- --
15:00 20.1 20.1 13.0 SSO 9.3 -- 18.5 64 1012.7(-0.5/3h) >70 -- -- --
14:00 20.7 20.7 13.0 SO 9.3 -- 16.7 61 1012.7(-0.3/3h) >70 -- -- --
13:00 19.5 19.5 12.7 SO 9.3 -- 16.7 65 1013.7(0.3/3h) >70 -- -- --
12:00 20.0 20.0 12.9 SO 11.1 -- 22.2 64 1013.3(0.1/3h) >70 -- -- --
11:00 19.5 19.5 12.3 OSO 13.0 -- 18.5 63 1013.2(0.3/3h) >70 -- -- --
10:00 19.5 19.5 12.9 SO 13.0 -- 20.4 66 1013.3(0.9/3h) >70 -- -- --
09:00 18.5 18.5 13.2 OSO 11.1 -- 22.2 71 1013.3(1.2/3h) >70 -- -- --
08:00 17.2 17.1 13.1 OSO 11.1 -- 22.2 77 1013.2(1.5/3h) >70 -- -- --
07:00 16.3 15.9 13.4 SO 13.0 -- 20.4 83 1012.7(1.1/3h) >70 -- -- --
06:00 15.2 14.7 13.1 SO 11.1 -- 24.1 87 1012.3(0.8/3h) >70 -- 0.2/12h
--
05:00 15.0 14.5 12.7 SO 11.1 -- 18.5 86 1012(0.6/3h) >70 -- -- --
04:00 15.2 14.7 12.9 SO 11.1 -- 18.5 86 1011.7(0.6/3h) >70 -- -- --
03:00 15.8 15.2 13.3 SO 13.0 -- 24.1 85 1011.5(0.8/3h) >70 -- -- --
02:00 16.5 16.3 13.8 OSO 11.1 -- 22.2 84 1011.1(0.8/3h) >70 -- -- --
01:00 17.1 16.8 13.5 OSO 13.0 -- 24.1 79 1010.7(0.8/3h) >70 -- -- --
00:00 17.7 17.7 15.3 OSO 9.3 -- 25.9 86 1010.2(0.8/3h) 70 -- 0.2/6h
Ciel clair

1 Coordinated Universal Time. Actuellement il est 04:00 locale et 02:00 UTC.

2 Le vent souffle depuis la direction indiquée vers la direction oposée.

3 Les rafales max. sont disponible 40 min après l'heure du relevé.

4 Pour les stations d'altitude (plus de 600m) le géopotentiel du niveau le plus proche de la pression obligatoire est indiqué.

5 Les stations disposant d'un diffuseur peuvent indiquer "trace". Cela signifie que des précipitations ont touchés le sol mais que la quantité est inférieure à 0.1 mm.

Récapitulatif de la journée
Température [°C] Vent [km/h] Ensoleillement4 [h] Precipitations totale5 [mm] Pression [Hpa]
Min1 Max.2 Moy.3 Max. Min Max.
14.8 21.1 0 25.9 0 h 0 min 0 1010.2 1013.7

1 Température minimale relevée entre 18:00 UTC la veille et 18:00 UTC le jour donné.

2 Température maximale relevée entre 06:00 UTC le jour donné et 06:00 UTC le lendemain.

3 Vent moyen de la journée basé sur les relevés horaires.

4 Ensoleillement en heures relevé entre 06:00 UTC la veille et 06:00 UTC le jour donné.

5 Précipitations totales tombées entre 06:00 UTC la jour donné et 06:00 UTC le lendemain.

Graphiques horaires